sensor_id;sensor_type;location;lat;lon;timestamp;P1;P2;P0
69746;PMS7003;57018;50.278;19.134;2022-08-11T00:02:30;9.25;9.25;7.00
69746;PMS7003;57018;50.278;19.134;2022-08-11T00:04:54;11.25;10.00;7.75
69746;PMS7003;57018;50.278;19.134;2022-08-11T00:07:23;9.75;8.50;7.25
69746;PMS7003;57018;50.278;19.134;2022-08-11T00:09:50;14.75;11.00;9.00
69746;PMS7003;57018;50.278;19.134;2022-08-11T00:12:17;12.25;9.50;7.25
69746;PMS7003;57018;50.278;19.134;2022-08-11T00:14:44;9.25;9.25;7.50
69746;PMS7003;57018;50.278;19.134;2022-08-11T00:17:13;12.50;11.25;9.00
69746;PMS7003;57018;50.278;19.134;2022-08-11T00:19:43;10.00;10.00;8.50
69746;PMS7003;57018;50.278;19.134;2022-08-11T00:22:10;12.50;12.50;10.00
69746;PMS7003;57018;50.278;19.134;2022-08-11T00:24:39;10.00;10.00;7.75
69746;PMS7003;57018;50.278;19.134;2022-08-11T00:27:06;12.25;12.25;10.00
69746;PMS7003;57018;50.278;19.134;2022-08-11T00:29:33;10.75;10.00;7.25
69746;PMS7003;57018;50.278;19.134;2022-08-11T00:32:00;11.25;9.25;6.75
69746;PMS7003;57018;50.278;19.134;2022-08-11T00:34:33;6.50;6.00;5.25
69746;PMS7003;57018;50.278;19.134;2022-08-11T00:37:06;9.50;9.50;7.25
69746;PMS7003;57018;50.278;19.134;2022-08-11T00:39:46;10.00;9.00;6.50
69746;PMS7003;57018;50.278;19.134;2022-08-11T00:42:18;8.25;8.00;7.00
69746;PMS7003;57018;50.278;19.134;2022-08-11T00:45:21;8.75;8.75;6.75
69746;PMS7003;57018;50.278;19.134;2022-08-11T00:50:46;7.50;7.50;7.00
69746;PMS7003;57018;50.278;19.134;2022-08-11T01:07:27;11.00;9.75;7.25
69746;PMS7003;57018;50.278;19.134;2022-08-11T01:13:08;11.00;9.50;7.00
69746;PMS7003;57018;50.278;19.134;2022-08-11T01:21:04;10.50;8.75;6.25
69746;PMS7003;57018;50.278;19.134;2022-08-11T01:37:53;12.00;9.00;7.25
69746;PMS7003;57018;50.278;19.134;2022-08-11T01:40:22;9.50;8.50;7.00
69746;PMS7003;57018;50.278;19.134;2022-08-11T01:43:08;11.75;9.00;7.00
69746;PMS7003;57018;50.278;19.134;2022-08-11T01:49:11;9.00;9.00;7.00
69746;PMS7003;57018;50.278;19.134;2022-08-11T01:54:40;11.25;10.00;8.00
69746;PMS7003;57018;50.278;19.134;2022-08-11T01:57:19;9.50;8.50;7.00
69746;PMS7003;57018;50.278;19.134;2022-08-11T01:59:46;9.75;8.00;6.75
69746;PMS7003;57018;50.278;19.134;2022-08-11T02:11:00;7.75;7.75;5.50
69746;PMS7003;57018;50.278;19.134;2022-08-11T02:17:10;10.50;8.50;7.50
69746;PMS7003;57018;50.278;19.134;2022-08-11T02:19:56;7.50;7.50;6.75
69746;PMS7003;57018;50.278;19.134;2022-08-11T02:22:54;9.50;9.50;7.25
69746;PMS7003;57018;50.278;19.134;2022-08-11T02:25:45;8.75;8.25;7.50
69746;PMS7003;57018;50.278;19.134;2022-08-11T02:28:27;12.25;11.00;8.00
69746;PMS7003;57018;50.278;19.134;2022-08-11T02:31:01;9.00;8.50;6.75
69746;PMS7003;57018;50.278;19.134;2022-08-11T02:34:02;10.25;9.00;7.00
69746;PMS7003;57018;50.278;19.134;2022-08-11T02:36:44;11.00;10.00;8.00
69746;PMS7003;57018;50.278;19.134;2022-08-11T02:39:13;11.00;11.00;8.25
69746;PMS7003;57018;50.278;19.134;2022-08-11T02:41:51;8.75;8.00;6.50
69746;PMS7003;57018;50.278;19.134;2022-08-11T02:44:50;11.50;9.75;8.00
69746;PMS7003;57018;50.278;19.134;2022-08-11T02:47:34;11.25;10.75;8.25
69746;PMS7003;57018;50.278;19.134;2022-08-11T02:50:12;9.75;8.25;7.25
69746;PMS7003;57018;50.278;19.134;2022-08-11T02:53:00;11.00;11.00;8.25
69746;PMS7003;57018;50.278;19.134;2022-08-11T02:55:36;13.75;9.00;8.00
69746;PMS7003;57018;50.278;19.134;2022-08-11T03:11:37;7.50;7.50;5.00
69746;PMS7003;57018;50.278;19.134;2022-08-11T03:14:42;15.00;13.00;10.75
69746;PMS7003;57018;50.278;19.134;2022-08-11T03:17:37;12.75;12.75;10.00
69746;PMS7003;57018;50.278;19.134;2022-08-11T03:20:27;10.75;10.75;10.00
69746;PMS7003;57018;50.278;19.134;2022-08-11T03:23:02;9.00;9.00;7.00
69746;PMS7003;57018;50.278;19.134;2022-08-11T03:25:31;11.75;11.25;9.25
69746;PMS7003;57018;50.278;19.134;2022-08-11T03:31:00;13.25;12.75;10.75
69746;PMS7003;57018;50.278;19.134;2022-08-11T03:41:35;9.50;9.25;7.50
69746;PMS7003;57018;50.278;19.134;2022-08-11T03:52:52;13.00;11.25;9.50
69746;PMS7003;57018;50.278;19.134;2022-08-11T04:00:53;12.25;11.50;8.50
69746;PMS7003;57018;50.278;19.134;2022-08-11T04:09:06;13.75;13.00;11.00
69746;PMS7003;57018;50.278;19.134;2022-08-11T04:15:03;13.00;11.75;9.00
69746;PMS7003;57018;50.278;19.134;2022-08-11T04:21:20;18.50;16.25;12.75
69746;PMS7003;57018;50.278;19.134;2022-08-11T04:24:23;15.00;14.00;10.00
69746;PMS7003;57018;50.278;19.134;2022-08-11T04:29:56;14.00;13.75;11.00
69746;PMS7003;57018;50.278;19.134;2022-08-11T04:49:16;21.25;20.50;15.25
69746;PMS7003;57018;50.278;19.134;2022-08-11T05:13:10;16.25;12.75;9.50
69746;PMS7003;57018;50.278;19.134;2022-08-11T05:15:57;13.25;13.25;10.25
69746;PMS7003;57018;50.278;19.134;2022-08-11T05:18:50;12.25;12.25;9.50
69746;PMS7003;57018;50.278;19.134;2022-08-11T05:21:33;12.00;10.25;9.75
69746;PMS7003;57018;50.278;19.134;2022-08-11T05:24:20;11.75;11.50;10.25
69746;PMS7003;57018;50.278;19.134;2022-08-11T05:27:08;10.50;9.00;5.75
69746;PMS7003;57018;50.278;19.134;2022-08-11T05:33:02;11.25;9.50;7.50
69746;PMS7003;57018;50.278;19.134;2022-08-11T05:36:07;12.25;12.25;8.75
69746;PMS7003;57018;50.278;19.134;2022-08-11T05:38:52;10.25;8.50;6.50
69746;PMS7003;57018;50.278;19.134;2022-08-11T05:41:43;14.50;14.50;8.50
69746;PMS7003;57018;50.278;19.134;2022-08-11T05:44:28;13.00;11.00;8.25
69746;PMS7003;57018;50.278;19.134;2022-08-11T05:47:23;8.50;8.50;6.00
69746;PMS7003;57018;50.278;19.134;2022-08-11T05:50:13;14.00;14.00;10.75
69746;PMS7003;57018;50.278;19.134;2022-08-11T05:53:00;14.00;10.50;8.50
69746;PMS7003;57018;50.278;19.134;2022-08-11T05:55:47;17.00;16.75;10.50
69746;PMS7003;57018;50.278;19.134;2022-08-11T05:58:35;15.75;15.00;9.25
69746;PMS7003;57018;50.278;19.134;2022-08-11T06:01:03;15.00;14.25;9.50
69746;PMS7003;57018;50.278;19.134;2022-08-11T06:03:30;17.50;14.25;9.50
69746;PMS7003;57018;50.278;19.134;2022-08-11T06:06:00;12.00;11.50;8.00
69746;PMS7003;57018;50.278;19.134;2022-08-11T06:08:31;14.25;11.75;8.75
69746;PMS7003;57018;50.278;19.134;2022-08-11T06:11:02;11.75;10.75;8.25
69746;PMS7003;57018;50.278;19.134;2022-08-11T06:13:29;14.50;11.25;8.25
69746;PMS7003;57018;50.278;19.134;2022-08-11T06:15:57;18.25;16.25;10.50
69746;PMS7003;57018;50.278;19.134;2022-08-11T06:18:25;15.00;14.50;10.50
69746;PMS7003;57018;50.278;19.134;2022-08-11T06:20:53;15.75;15.00;9.25
69746;PMS7003;57018;50.278;19.134;2022-08-11T06:23:23;16.75;15.25;10.50
69746;PMS7003;57018;50.278;19.134;2022-08-11T06:25:52;21.25;17.00;11.50
69746;PMS7003;57018;50.278;19.134;2022-08-11T06:28:18;17.25;15.75;10.50
69746;PMS7003;57018;50.278;19.134;2022-08-11T06:30:50;10.25;8.50;6.50
69746;PMS7003;57018;50.278;19.134;2022-08-11T06:36:09;18.50;16.25;10.75
69746;PMS7003;57018;50.278;19.134;2022-08-11T06:44:28;18.50;16.00;11.25
69746;PMS7003;57018;50.278;19.134;2022-08-11T06:47:03;18.00;16.50;11.25
69746;PMS7003;57018;50.278;19.134;2022-08-11T06:49:33;21.25;19.25;11.25
69746;PMS7003;57018;50.278;19.134;2022-08-11T06:52:26;18.25;16.75;11.00
69746;PMS7003;57018;50.278;19.134;2022-08-11T06:57:36;18.25;17.00;11.50
69746;PMS7003;57018;50.278;19.134;2022-08-11T07:00:23;14.50;14.50;10.75
69746;PMS7003;57018;50.278;19.134;2022-08-11T07:03:02;21.25;19.00;13.50
69746;PMS7003;57018;50.278;19.134;2022-08-11T07:14:40;13.00;13.00;10.25
69746;PMS7003;57018;50.278;19.134;2022-08-11T07:17:26;15.25;12.75;10.50
69746;PMS7003;57018;50.278;19.134;2022-08-11T07:19:56;14.50;12.25;8.25
69746;PMS7003;57018;50.278;19.134;2022-08-11T07:22:35;8.00;7.50;6.25
69746;PMS7003;57018;50.278;19.134;2022-08-11T07:25:20;6.50;6.50;4.75
69746;PMS7003;57018;50.278;19.134;2022-08-11T07:28:11;6.00;6.00;4.75
69746;PMS7003;57018;50.278;19.134;2022-08-11T07:31:06;6.50;5.25;3.75
69746;PMS7003;57018;50.278;19.134;2022-08-11T07:33:41;8.25;5.25;5.00
69746;PMS7003;57018;50.278;19.134;2022-08-11T07:36:15;5.00;5.00;3.50
69746;PMS7003;57018;50.278;19.134;2022-08-11T07:38:44;6.50;5.00;4.00
69746;PMS7003;57018;50.278;19.134;2022-08-11T07:41:15;6.00;6.00;5.00
69746;PMS7003;57018;50.278;19.134;2022-08-11T07:43:43;4.75;4.75;4.00
69746;PMS7003;57018;50.278;19.134;2022-08-11T07:46:14;4.75;4.75;3.25
69746;PMS7003;57018;50.278;19.134;2022-08-11T07:49:00;6.50;6.50;3.75
69746;PMS7003;57018;50.278;19.134;2022-08-11T07:51:48;5.00;5.00;4.00
69746;PMS7003;57018;50.278;19.134;2022-08-11T07:54:33;6.00;6.00;4.00
69746;PMS7003;57018;50.278;19.134;2022-08-11T07:57:02;4.75;4.75;4.00
69746;PMS7003;57018;50.278;19.134;2022-08-11T07:59:48;7.00;7.00;5.00
69746;PMS7003;57018;50.278;19.134;2022-08-11T08:02:33;5.25;5.25;3.00
69746;PMS7003;57018;50.278;19.134;2022-08-11T08:05:19;7.00;7.00;4.00
69746;PMS7003;57018;50.278;19.134;2022-08-11T08:08:05;8.00;6.50;4.25
69746;PMS7003;57018;50.278;19.134;2022-08-11T08:10:51;4.00;4.00;2.75
69746;PMS7003;57018;50.278;19.134;2022-08-11T08:13:39;3.25;3.25;3.00
69746;PMS7003;57018;50.278;19.134;2022-08-11T08:16:26;3.00;3.00;1.75
69746;PMS7003;57018;50.278;19.134;2022-08-11T08:19:14;4.50;4.50;3.25
69746;PMS7003;57018;50.278;19.134;2022-08-11T08:21:42;4.00;4.00;3.00
69746;PMS7003;57018;50.278;19.134;2022-08-11T08:24:10;5.00;5.00;3.50
69746;PMS7003;57018;50.278;19.134;2022-08-11T08:26:37;4.25;4.25;2.25
69746;PMS7003;57018;50.278;19.134;2022-08-11T08:29:23;7.00;4.50;3.25
69746;PMS7003;57018;50.278;19.134;2022-08-11T08:32:14;6.00;6.00;3.75
69746;PMS7003;57018;50.278;19.134;2022-08-11T08:34:42;4.25;4.00;3.00
69746;PMS7003;57018;50.278;19.134;2022-08-11T08:37:10;5.75;5.75;3.75
69746;PMS7003;57018;50.278;19.134;2022-08-11T08:39:37;6.50;5.00;3.50
69746;PMS7003;57018;50.278;19.134;2022-08-11T08:42:16;6.50;6.50;5.00
69746;PMS7003;57018;50.278;19.134;2022-08-11T08:44:38;8.00;6.25;5.00
69746;PMS7003;57018;50.278;19.134;2022-08-11T08:47:10;5.25;5.00;5.00
69746;PMS7003;57018;50.278;19.134;2022-08-11T08:49:45;4.25;3.25;2.00
69746;PMS7003;57018;50.278;19.134;2022-08-11T08:52:19;4.00;4.00;2.75
69746;PMS7003;57018;50.278;19.134;2022-08-11T08:54:47;5.50;4.00;3.00
69746;PMS7003;57018;50.278;19.134;2022-08-11T08:57:15;3.00;2.00;1.25
69746;PMS7003;57018;50.278;19.134;2022-08-11T08:59:44;4.75;3.50;3.00
69746;PMS7003;57018;50.278;19.134;2022-08-11T09:02:14;3.25;2.50;1.50
69746;PMS7003;57018;50.278;19.134;2022-08-11T09:04:43;4.75;3.00;2.25
69746;PMS7003;57018;50.278;19.134;2022-08-11T09:07:11;3.00;3.00;2.00
69746;PMS7003;57018;50.278;19.134;2022-08-11T09:09:44;2.75;2.75;2.50
69746;PMS7003;57018;50.278;19.134;2022-08-11T09:12:16;3.00;3.00;3.00
69746;PMS7003;57018;50.278;19.134;2022-08-11T09:14:48;6.00;4.00;3.00
69746;PMS7003;57018;50.278;19.134;2022-08-11T09:17:33;4.75;4.00;2.75
69746;PMS7003;57018;50.278;19.134;2022-08-11T09:20:17;4.00;4.00;2.75
69746;PMS7003;57018;50.278;19.134;2022-08-11T09:22:47;5.00;5.00;4.00
69746;PMS7003;57018;50.278;19.134;2022-08-11T09:25:35;4.00;4.00;2.75
69746;PMS7003;57018;50.278;19.134;2022-08-11T09:28:20;5.25;4.00;3.00
69746;PMS7003;57018;50.278;19.134;2022-08-11T09:30:49;4.50;4.50;2.75
69746;PMS7003;57018;50.278;19.134;2022-08-11T09:33:18;5.00;4.00;2.75
69746;PMS7003;57018;50.278;19.134;2022-08-11T09:35:46;4.00;4.00;3.00
69746;PMS7003;57018;50.278;19.134;2022-08-11T09:38:16;5.00;4.25;3.25
69746;PMS7003;57018;50.278;19.134;2022-08-11T09:41:03;2.25;2.25;2.00
69746;PMS7003;57018;50.278;19.134;2022-08-11T09:43:32;2.00;2.00;1.00
69746;PMS7003;57018;50.278;19.134;2022-08-11T09:46:24;3.75;3.75;3.00
69746;PMS7003;57018;50.278;19.134;2022-08-11T09:48:54;6.75;4.75;2.00
69746;PMS7003;57018;50.278;19.134;2022-08-11T09:51:23;4.75;4.75;3.75
69746;PMS7003;57018;50.278;19.134;2022-08-11T09:53:51;4.50;4.00;3.00
69746;PMS7003;57018;50.278;19.134;2022-08-11T09:56:19;6.75;4.25;4.00
69746;PMS7003;57018;50.278;19.134;2022-08-11T09:59:06;4.25;4.25;4.00
69746;PMS7003;57018;50.278;19.134;2022-08-11T10:01:45;3.75;3.75;3.00
69746;PMS7003;57018;50.278;19.134;2022-08-11T10:04:17;4.00;4.00;3.50
69746;PMS7003;57018;50.278;19.134;2022-08-11T10:06:48;7.75;6.25;4.25
69746;PMS7003;57018;50.278;19.134;2022-08-11T10:10:13;6.00;5.00;4.00
69746;PMS7003;57018;50.278;19.134;2022-08-11T10:12:19;4.25;4.25;4.00
69746;PMS7003;57018;50.278;19.134;2022-08-11T10:14:47;5.00;5.00;3.00
69746;PMS7003;57018;50.278;19.134;2022-08-11T10:17:35;6.00;6.00;4.25
69746;PMS7003;57018;50.278;19.134;2022-08-11T10:20:06;5.50;4.50;3.25
69746;PMS7003;57018;50.278;19.134;2022-08-11T10:22:35;7.00;6.00;5.00
69746;PMS7003;57018;50.278;19.134;2022-08-11T10:25:20;6.75;4.75;4.00
69746;PMS7003;57018;50.278;19.134;2022-08-11T10:28:06;8.00;8.00;5.00
69746;PMS7003;57018;50.278;19.134;2022-08-11T10:30:34;9.25;7.75;6.50
69746;PMS7003;57018;50.278;19.134;2022-08-11T10:33:20;6.25;6.00;5.00
69746;PMS7003;57018;50.278;19.134;2022-08-11T10:36:06;6.25;6.25;4.50
69746;PMS7003;57018;50.278;19.134;2022-08-11T10:38:33;4.00;4.00;3.00
69746;PMS7003;57018;50.278;19.134;2022-08-11T10:41:00;3.50;3.50;3.00
69746;PMS7003;57018;50.278;19.134;2022-08-11T10:43:46;3.00;3.00;2.75
69746;PMS7003;57018;50.278;19.134;2022-08-11T10:46:12;4.75;4.75;3.00
69746;PMS7003;57018;50.278;19.134;2022-08-11T10:48:57;4.00;4.00;3.00
69746;PMS7003;57018;50.278;19.134;2022-08-11T10:51:25;5.50;4.50;3.75
69746;PMS7003;57018;50.278;19.134;2022-08-11T10:54:11;4.75;4.75;3.25
69746;PMS7003;57018;50.278;19.134;2022-08-11T10:56:58;4.25;3.25;2.75
69746;PMS7003;57018;50.278;19.134;2022-08-11T10:59:43;5.25;3.00;2.75
69746;PMS7003;57018;50.278;19.134;2022-08-11T11:02:12;2.75;2.75;2.00
69746;PMS7003;57018;50.278;19.134;2022-08-11T11:07:28;4.00;3.00;3.00
69746;PMS7003;57018;50.278;19.134;2022-08-11T11:09:55;3.50;3.50;2.50
69746;PMS7003;57018;50.278;19.134;2022-08-11T11:15:23;2.00;2.00;1.00
69746;PMS7003;57018;50.278;19.134;2022-08-11T11:18:18;3.50;3.50;3.00
69746;PMS7003;57018;50.278;19.134;2022-08-11T11:23:32;3.00;3.00;2.00
69746;PMS7003;57018;50.278;19.134;2022-08-11T11:34:54;4.00;4.00;3.00
69746;PMS7003;57018;50.278;19.134;2022-08-11T11:37:32;4.50;4.50;4.00
69746;PMS7003;57018;50.278;19.134;2022-08-11T11:39:58;3.50;3.50;3.50
69746;PMS7003;57018;50.278;19.134;2022-08-11T11:42:25;0.00;0.00;0.00
69746;PMS7003;57018;50.278;19.134;2022-08-11T11:44:53;3.75;3.75;3.00
69746;PMS7003;57018;50.278;19.134;2022-08-11T11:47:20;2.00;2.00;1.25
69746;PMS7003;57018;50.278;19.134;2022-08-11T11:49:47;2.00;2.00;2.00
69746;PMS7003;57018;50.278;19.134;2022-08-11T11:52:15;4.00;3.00;2.00
69746;PMS7003;57018;50.278;19.134;2022-08-11T11:54:44;3.75;3.00;2.00
69746;PMS7003;57018;50.278;19.134;2022-08-11T11:57:13;3.00;3.00;2.00
69746;PMS7003;57018;50.278;19.134;2022-08-11T12:00:05;2.25;1.50;1.00
69746;PMS7003;57018;50.278;19.134;2022-08-11T12:02:51;2.00;2.00;2.00
69746;PMS7003;57018;50.278;19.134;2022-08-11T12:05:19;3.00;2.75;2.00
69746;PMS7003;57018;50.278;19.134;2022-08-11T12:07:49;3.00;3.00;2.00
69746;PMS7003;57018;50.278;19.134;2022-08-11T12:10:36;1.50;1.50;1.25
69746;PMS7003;57018;50.278;19.134;2022-08-11T12:13:11;1.50;1.50;1.00
69746;PMS7003;57018;50.278;19.134;2022-08-11T12:15:57;2.00;2.00;2.00
69746;PMS7003;57018;50.278;19.134;2022-08-11T12:18:26;3.50;3.00;2.00
69746;PMS7003;57018;50.278;19.134;2022-08-11T12:20:52;2.00;2.00;1.00
69746;PMS7003;57018;50.278;19.134;2022-08-11T12:23:19;2.25;2.25;2.00
69746;PMS7003;57018;50.278;19.134;2022-08-11T12:26:03;2.50;2.50;2.00
69746;PMS7003;57018;50.278;19.134;2022-08-11T12:28:48;4.00;4.00;2.25
69746;PMS7003;57018;50.278;19.134;2022-08-11T12:31:15;2.00;2.00;1.50
69746;PMS7003;57018;50.278;19.134;2022-08-11T12:33:41;2.50;2.50;2.00
69746;PMS7003;57018;50.278;19.134;2022-08-11T12:36:08;1.25;1.25;1.00
69746;PMS7003;57018;50.278;19.134;2022-08-11T12:38:37;2.25;2.25;2.00
69746;PMS7003;57018;50.278;19.134;2022-08-11T12:41:04;2.75;2.75;2.00
69746;PMS7003;57018;50.278;19.134;2022-08-11T12:43:48;2.00;1.25;1.00
69746;PMS7003;57018;50.278;19.134;2022-08-11T12:46:34;1.00;1.00;0.75
69746;PMS7003;57018;50.278;19.134;2022-08-11T12:49:06;1.25;1.25;1.00
69746;PMS7003;57018;50.278;19.134;2022-08-11T12:51:57;1.75;1.75;0.75
69746;PMS7003;57018;50.278;19.134;2022-08-11T12:54:28;2.00;2.00;1.00
69746;PMS7003;57018;50.278;19.134;2022-08-11T12:57:00;2.00;2.00;2.00
69746;PMS7003;57018;50.278;19.134;2022-08-11T12:59:47;4.00;4.00;1.75
69746;PMS7003;57018;50.278;19.134;2022-08-11T13:02:32;1.00;1.00;1.00
69746;PMS7003;57018;50.278;19.134;2022-08-11T13:05:17;3.00;3.00;3.00
69746;PMS7003;57018;50.278;19.134;2022-08-11T13:07:46;2.00;2.00;2.00
69746;PMS7003;57018;50.278;19.134;2022-08-11T13:10:15;3.00;3.00;2.00
69746;PMS7003;57018;50.278;19.134;2022-08-11T13:13:01;2.00;2.00;2.00
69746;PMS7003;57018;50.278;19.134;2022-08-11T13:15:29;3.75;3.00;2.00
69746;PMS7003;57018;50.278;19.134;2022-08-11T13:17:56;1.00;1.00;0.25
69746;PMS7003;57018;50.278;19.134;2022-08-11T13:20:24;1.00;1.00;1.00
69746;PMS7003;57018;50.278;19.134;2022-08-11T13:22:52;0.75;0.75;0.75
69746;PMS7003;57018;50.278;19.134;2022-08-11T13:25:22;2.50;2.50;2.00
69746;PMS7003;57018;50.278;19.134;2022-08-11T13:27:51;2.25;2.00;1.25
69746;PMS7003;57018;50.278;19.134;2022-08-11T13:30:21;3.25;3.25;2.00
69746;PMS7003;57018;50.278;19.134;2022-08-11T13:33:08;3.00;3.00;2.00
69746;PMS7003;57018;50.278;19.134;2022-08-11T13:35:36;3.00;3.00;2.00
69746;PMS7003;57018;50.278;19.134;2022-08-11T13:38:03;3.50;3.50;2.00
69746;PMS7003;57018;50.278;19.134;2022-08-11T13:40:31;2.00;2.00;1.75
69746;PMS7003;57018;50.278;19.134;2022-08-11T13:42:58;1.75;1.75;1.50
69746;PMS7003;57018;50.278;19.134;2022-08-11T13:45:25;2.00;1.50;1.00
69746;PMS7003;57018;50.278;19.134;2022-08-11T13:47:54;3.00;1.75;1.25
69746;PMS7003;57018;50.278;19.134;2022-08-11T13:50:20;6.00;4.00;2.00
69746;PMS7003;57018;50.278;19.134;2022-08-11T13:52:50;4.50;4.25;3.00
69746;PMS7003;57018;50.278;19.134;2022-08-11T13:55:17;3.00;3.00;2.00
69746;PMS7003;57018;50.278;19.134;2022-08-11T13:57:48;2.25;2.25;1.75
69746;PMS7003;57018;50.278;19.134;2022-08-11T14:00:16;3.75;2.00;1.25
69746;PMS7003;57018;50.278;19.134;2022-08-11T14:02:43;5.00;3.00;2.00
69746;PMS7003;57018;50.278;19.134;2022-08-11T14:05:13;5.75;4.00;4.00
69746;PMS7003;57018;50.278;19.134;2022-08-11T14:07:51;3.75;3.75;3.00
69746;PMS7003;57018;50.278;19.134;2022-08-11T14:10:20;3.00;3.00;1.75
69746;PMS7003;57018;50.278;19.134;2022-08-11T14:12:52;5.00;3.00;2.50
69746;PMS7003;57018;50.278;19.134;2022-08-11T14:15:43;5.25;4.00;4.00
69746;PMS7003;57018;50.278;19.134;2022-08-11T14:20:51;4.00;4.00;3.75
69746;PMS7003;57018;50.278;19.134;2022-08-11T14:23:39;5.00;5.00;4.00
69746;PMS7003;57018;50.278;19.134;2022-08-11T14:26:10;5.50;5.50;4.00
69746;PMS7003;57018;50.278;19.134;2022-08-11T14:28:52;4.00;2.00;2.00
69746;PMS7003;57018;50.278;19.134;2022-08-11T14:31:20;3.75;3.75;3.00
69746;PMS7003;57018;50.278;19.134;2022-08-11T14:33:50;3.75;3.00;2.00
69746;PMS7003;57018;50.278;19.134;2022-08-11T14:36:23;3.00;2.00;1.75
69746;PMS7003;57018;50.278;19.134;2022-08-11T14:38:50;3.75;3.75;3.50
69746;PMS7003;57018;50.278;19.134;2022-08-11T14:41:18;4.00;4.00;3.25
69746;PMS7003;57018;50.278;19.134;2022-08-11T14:44:04;3.25;3.25;3.00
69746;PMS7003;57018;50.278;19.134;2022-08-11T14:46:51;3.00;3.00;3.00
69746;PMS7003;57018;50.278;19.134;2022-08-11T14:49:30;3.75;3.75;3.00
69746;PMS7003;57018;50.278;19.134;2022-08-11T14:52:00;5.25;3.00;3.00
69746;PMS7003;57018;50.278;19.134;2022-08-11T14:54:29;3.25;3.00;2.50
69746;PMS7003;57018;50.278;19.134;2022-08-11T14:57:15;3.00;3.00;2.00
69746;PMS7003;57018;50.278;19.134;2022-08-11T14:59:43;3.00;3.00;2.00
69746;PMS7003;57018;50.278;19.134;2022-08-11T15:02:13;4.00;4.00;3.25
69746;PMS7003;57018;50.278;19.134;2022-08-11T15:04:59;5.75;5.75;4.00
69746;PMS7003;57018;50.278;19.134;2022-08-11T15:07:27;4.50;4.50;3.00
69746;PMS7003;57018;50.278;19.134;2022-08-11T15:09:57;4.00;4.00;2.25
69746;PMS7003;57018;50.278;19.134;2022-08-11T15:12:25;13.50;8.75;5.75
69746;PMS7003;57018;50.278;19.134;2022-08-11T15:14:52;7.25;7.25;5.00
69746;PMS7003;57018;50.278;19.134;2022-08-11T15:17:38;5.00;4.75;3.50
69746;PMS7003;57018;50.278;19.134;2022-08-11T15:20:10;6.25;6.25;3.50
69746;PMS7003;57018;50.278;19.134;2022-08-11T15:22:57;5.75;5.75;3.75
69746;PMS7003;57018;50.278;19.134;2022-08-11T15:25:42;13.25;9.25;6.25
69746;PMS7003;57018;50.278;19.134;2022-08-11T15:28:10;3.00;3.00;2.00
69746;PMS7003;57018;50.278;19.134;2022-08-11T15:30:58;13.75;13.75;9.25
69746;PMS7003;57018;50.278;19.134;2022-08-11T15:33:45;80.50;69.50;49.50
69746;PMS7003;57018;50.278;19.134;2022-08-11T15:36:33;47.50;40.00;25.75
69746;PMS7003;57018;50.278;19.134;2022-08-11T15:39:26;18.25;18.25;11.50
69746;PMS7003;57018;50.278;19.134;2022-08-11T15:42:03;6.00;6.00;4.00
69746;PMS7003;57018;50.278;19.134;2022-08-11T15:44:50;3.75;3.75;2.00
69746;PMS7003;57018;50.278;19.134;2022-08-11T15:47:45;5.25;5.25;4.00
69746;PMS7003;57018;50.278;19.134;2022-08-11T15:50:18;5.75;5.25;3.50
69746;PMS7003;57018;50.278;19.134;2022-08-11T15:52:47;2.25;2.25;2.00
69746;PMS7003;57018;50.278;19.134;2022-08-11T15:55:14;2.75;2.75;1.75
69746;PMS7003;57018;50.278;19.134;2022-08-11T15:57:42;3.00;3.00;2.75
69746;PMS7003;57018;50.278;19.134;2022-08-11T16:00:31;3.00;3.00;2.25
69746;PMS7003;57018;50.278;19.134;2022-08-11T16:03:16;2.50;2.50;2.25
69746;PMS7003;57018;50.278;19.134;2022-08-11T16:06:03;3.75;3.00;2.50
69746;PMS7003;57018;50.278;19.134;2022-08-11T16:08:30;2.00;2.00;1.50
69746;PMS7003;57018;50.278;19.134;2022-08-11T16:10:58;5.00;5.00;4.00
69746;PMS7003;57018;50.278;19.134;2022-08-11T16:13:26;5.00;3.75;3.00
69746;PMS7003;57018;50.278;19.134;2022-08-11T16:15:56;4.75;4.50;3.50
69746;PMS7003;57018;50.278;19.134;2022-08-11T16:18:42;6.00;5.50;4.25
69746;PMS7003;57018;50.278;19.134;2022-08-11T16:21:17;9.25;6.75;5.75
69746;PMS7003;57018;50.278;19.134;2022-08-11T16:23:47;7.25;6.25;4.00
69746;PMS7003;57018;50.278;19.134;2022-08-11T16:26:16;5.75;5.75;4.50
69746;PMS7003;57018;50.278;19.134;2022-08-11T16:28:56;8.25;6.25;4.00
69746;PMS7003;57018;50.278;19.134;2022-08-11T16:31:22;6.50;5.25;4.00
69746;PMS7003;57018;50.278;19.134;2022-08-11T16:33:51;8.25;8.25;5.00
69746;PMS7003;57018;50.278;19.134;2022-08-11T16:36:19;9.00;9.00;6.00
69746;PMS7003;57018;50.278;19.134;2022-08-11T16:39:06;8.75;8.25;5.50
69746;PMS7003;57018;50.278;19.134;2022-08-11T16:41:38;9.25;7.50;5.00
69746;PMS7003;57018;50.278;19.134;2022-08-11T16:44:28;14.75;13.00;7.75
69746;PMS7003;57018;50.278;19.134;2022-08-11T16:47:14;13.50;10.75;6.25
69746;PMS7003;57018;50.278;19.134;2022-08-11T16:49:43;14.75;12.50;8.25
69746;PMS7003;57018;50.278;19.134;2022-08-11T16:52:11;8.25;8.25;6.50
69746;PMS7003;57018;50.278;19.134;2022-08-11T16:54:39;9.75;9.50;7.00
69746;PMS7003;57018;50.278;19.134;2022-08-11T16:57:23;11.25;11.25;8.75
69746;PMS7003;57018;50.278;19.134;2022-08-11T17:00:10;8.50;7.75;5.50
69746;PMS7003;57018;50.278;19.134;2022-08-11T17:02:49;9.75;9.75;6.50
69746;PMS7003;57018;50.278;19.134;2022-08-11T17:05:37;16.00;10.50;6.25
69746;PMS7003;57018;50.278;19.134;2022-08-11T17:08:29;10.75;10.75;7.25
69746;PMS7003;57018;50.278;19.134;2022-08-11T17:11:15;13.00;10.25;8.25
69746;PMS7003;57018;50.278;19.134;2022-08-11T19:54:36;15.00;14.00;12.00
69746;PMS7003;57018;50.278;19.134;2022-08-11T19:57:23;16.00;15.50;10.50
69746;PMS7003;57018;50.278;19.134;2022-08-11T20:00:19;13.50;13.50;11.00
69746;PMS7003;57018;50.278;19.134;2022-08-11T20:03:08;17.25;15.75;11.50
69746;PMS7003;57018;50.278;19.134;2022-08-11T20:05:51;15.50;12.75;10.00
69746;PMS7003;57018;50.278;19.134;2022-08-11T20:08:42;13.25;12.50;8.75
69746;PMS7003;57018;50.278;19.134;2022-08-11T20:11:25;13.25;12.75;11.00
69746;PMS7003;57018;50.278;19.134;2022-08-11T20:14:15;12.25;12.00;10.25
69746;PMS7003;57018;50.278;19.134;2022-08-11T20:17:02;11.50;11.50;10.00
69746;PMS7003;57018;50.278;19.134;2022-08-11T20:19:49;9.50;9.50;7.00
69746;PMS7003;57018;50.278;19.134;2022-08-11T20:22:35;9.25;8.75;7.25
69746;PMS7003;57018;50.278;19.134;2022-08-11T20:25:21;11.00;9.75;8.50
69746;PMS7003;57018;50.278;19.134;2022-08-11T20:28:07;10.00;10.00;7.50
69746;PMS7003;57018;50.278;19.134;2022-08-11T20:30:54;10.25;9.50;7.25
69746;PMS7003;57018;50.278;19.134;2022-08-11T20:33:39;11.00;9.50;7.50
69746;PMS7003;57018;50.278;19.134;2022-08-11T20:36:26;10.50;10.50;8.25
69746;PMS7003;57018;50.278;19.134;2022-08-11T20:39:14;12.50;11.50;9.50
69746;PMS7003;57018;50.278;19.134;2022-08-11T20:42:00;12.50;10.75;8.25
69746;PMS7003;57018;50.278;19.134;2022-08-11T20:44:47;11.50;9.00;7.00
69746;PMS7003;57018;50.278;19.134;2022-08-11T20:47:34;12.00;10.00;8.00
69746;PMS7003;57018;50.278;19.134;2022-08-11T20:50:21;8.25;7.50;7.50
69746;PMS7003;57018;50.278;19.134;2022-08-11T20:53:07;12.50;10.00;8.75